sensor_id;sensor_type;location;lat;lon;timestamp;P1;durP1;ratioP1;P2;durP2;ratioP2
56122;SDS011;42426;46.104;19.656;2023-05-10T00:00:27;8.57;;;6.63;;
56122;SDS011;42426;46.104;19.656;2023-05-10T00:02:52;8.20;;;6.70;;
56122;SDS011;42426;46.104;19.656;2023-05-10T00:05:18;8.73;;;6.13;;
56122;SDS011;42426;46.104;19.656;2023-05-10T00:07:44;10.68;;;7.28;;
56122;SDS011;42426;46.104;19.656;2023-05-10T00:10:10;7.28;;;6.40;;
56122;SDS011;42426;46.104;19.656;2023-05-10T00:12:36;11.05;;;7.18;;
56122;SDS011;42426;46.104;19.656;2023-05-10T00:15:02;8.30;;;7.07;;
56122;SDS011;42426;46.104;19.656;2023-05-10T00:17:28;8.63;;;6.57;;
56122;SDS011;42426;46.104;19.656;2023-05-10T00:19:55;12.70;;;6.35;;
56122;SDS011;42426;46.104;19.656;2023-05-10T00:22:21;8.07;;;6.60;;
56122;SDS011;42426;46.104;19.656;2023-05-10T00:24:47;7.85;;;6.25;;
56122;SDS011;42426;46.104;19.656;2023-05-10T00:27:12;8.38;;;6.85;;
56122;SDS011;42426;46.104;19.656;2023-05-10T00:29:38;10.98;;;6.38;;
56122;SDS011;42426;46.104;19.656;2023-05-10T00:32:04;12.45;;;7.15;;
56122;SDS011;42426;46.104;19.656;2023-05-10T00:34:31;7.60;;;6.60;;
56122;SDS011;42426;46.104;19.656;2023-05-10T00:36:56;9.10;;;7.18;;
56122;SDS011;42426;46.104;19.656;2023-05-10T00:39:24;11.95;;;6.82;;
56122;SDS011;42426;46.104;19.656;2023-05-10T00:41:51;8.27;;;7.07;;
56122;SDS011;42426;46.104;19.656;2023-05-10T00:44:17;8.57;;;6.78;;
56122;SDS011;42426;46.104;19.656;2023-05-10T00:46:43;11.23;;;7.55;;
56122;SDS011;42426;46.104;19.656;2023-05-10T00:49:11;7.97;;;6.53;;
56122;SDS011;42426;46.104;19.656;2023-05-10T00:51:37;9.48;;;6.68;;
56122;SDS011;42426;46.104;19.656;2023-05-10T00:54:02;7.47;;;6.18;;
56122;SDS011;42426;46.104;19.656;2023-05-10T00:56:28;9.85;;;7.55;;
56122;SDS011;42426;46.104;19.656;2023-05-10T00:58:55;9.00;;;7.22;;
56122;SDS011;42426;46.104;19.656;2023-05-10T01:01:21;10.52;;;6.82;;
56122;SDS011;42426;46.104;19.656;2023-05-10T01:03:50;10.15;;;7.20;;
56122;SDS011;42426;46.104;19.656;2023-05-10T01:06:17;10.15;;;6.47;;
56122;SDS011;42426;46.104;19.656;2023-05-10T01:08:43;9.15;;;6.93;;
56122;SDS011;42426;46.104;19.656;2023-05-10T01:11:08;8.60;;;6.72;;
56122;SDS011;42426;46.104;19.656;2023-05-10T01:13:38;10.00;;;7.43;;
56122;SDS011;42426;46.104;19.656;2023-05-10T01:16:06;7.80;;;6.30;;
56122;SDS011;42426;46.104;19.656;2023-05-10T01:18:33;9.18;;;6.88;;
56122;SDS011;42426;46.104;19.656;2023-05-10T01:29:33;11.18;;;7.55;;
56122;SDS011;42426;46.104;19.656;2023-05-10T01:34:57;9.68;;;7.40;;
56122;SDS011;42426;46.104;19.656;2023-05-10T01:37:28;10.43;;;7.05;;
56122;SDS011;42426;46.104;19.656;2023-05-10T01:42:46;11.32;;;7.25;;
56122;SDS011;42426;46.104;19.656;2023-05-10T01:45:38;9.30;;;7.03;;
56122;SDS011;42426;46.104;19.656;2023-05-10T01:48:09;10.35;;;6.75;;
56122;SDS011;42426;46.104;19.656;2023-05-10T01:50:36;10.43;;;6.85;;
56122;SDS011;42426;46.104;19.656;2023-05-10T01:53:08;9.60;;;7.00;;
56122;SDS011;42426;46.104;19.656;2023-05-10T01:55:39;8.60;;;6.65;;
56122;SDS011;42426;46.104;19.656;2023-05-10T01:58:13;11.93;;;7.72;;
56122;SDS011;42426;46.104;19.656;2023-05-10T02:00:41;9.15;;;7.05;;
56122;SDS011;42426;46.104;19.656;2023-05-10T02:03:09;8.38;;;6.95;;
56122;SDS011;42426;46.104;19.656;2023-05-10T02:05:37;11.70;;;7.22;;
56122;SDS011;42426;46.104;19.656;2023-05-10T02:08:07;7.60;;;6.60;;
56122;SDS011;42426;46.104;19.656;2023-05-10T02:10:34;10.10;;;6.63;;
56122;SDS011;42426;46.104;19.656;2023-05-10T02:13:00;8.80;;;6.78;;
56122;SDS011;42426;46.104;19.656;2023-05-10T02:15:28;8.38;;;6.40;;
56122;SDS011;42426;46.104;19.656;2023-05-10T02:17:55;8.10;;;7.00;;
56122;SDS011;42426;46.104;19.656;2023-05-10T02:20:23;12.00;;;7.35;;
56122;SDS011;42426;46.104;19.656;2023-05-10T02:22:50;9.75;;;6.35;;
56122;SDS011;42426;46.104;19.656;2023-05-10T02:25:19;7.88;;;6.80;;
56122;SDS011;42426;46.104;19.656;2023-05-10T02:27:47;8.38;;;7.25;;
56122;SDS011;42426;46.104;19.656;2023-05-10T02:30:14;10.85;;;7.20;;
56122;SDS011;42426;46.104;19.656;2023-05-10T02:32:41;10.05;;;6.88;;
56122;SDS011;42426;46.104;19.656;2023-05-10T02:35:08;9.95;;;7.60;;
56122;SDS011;42426;46.104;19.656;2023-05-10T02:37:36;10.60;;;7.13;;
56122;SDS011;42426;46.104;19.656;2023-05-10T02:40:03;10.00;;;7.40;;
56122;SDS011;42426;46.104;19.656;2023-05-10T02:42:32;10.18;;;7.43;;
56122;SDS011;42426;46.104;19.656;2023-05-10T02:45:01;8.75;;;7.70;;
56122;SDS011;42426;46.104;19.656;2023-05-10T02:47:30;11.23;;;7.90;;
56122;SDS011;42426;46.104;19.656;2023-05-10T02:49:56;9.23;;;7.10;;
56122;SDS011;42426;46.104;19.656;2023-05-10T02:52:27;10.95;;;7.60;;
56122;SDS011;42426;46.104;19.656;2023-05-10T02:54:56;8.75;;;6.72;;
56122;SDS011;42426;46.104;19.656;2023-05-10T02:57:30;8.55;;;7.68;;
56122;SDS011;42426;46.104;19.656;2023-05-10T02:59:58;12.52;;;8.68;;
56122;SDS011;42426;46.104;19.656;2023-05-10T03:02:25;9.52;;;7.78;;
56122;SDS011;42426;46.104;19.656;2023-05-10T03:04:51;10.80;;;7.63;;
56122;SDS011;42426;46.104;19.656;2023-05-10T03:07:17;10.45;;;7.97;;
56122;SDS011;42426;46.104;19.656;2023-05-10T03:09:46;10.02;;;8.35;;
56122;SDS011;42426;46.104;19.656;2023-05-10T03:15:07;11.50;;;8.35;;
56122;SDS011;42426;46.104;19.656;2023-05-10T03:20:34;9.27;;;7.85;;
56122;SDS011;42426;46.104;19.656;2023-05-10T03:23:04;10.32;;;7.97;;
56122;SDS011;42426;46.104;19.656;2023-05-10T03:25:36;10.65;;;8.57;;
56122;SDS011;42426;46.104;19.656;2023-05-10T03:28:03;9.15;;;7.90;;
56122;SDS011;42426;46.104;19.656;2023-05-10T03:30:30;11.52;;;7.97;;
56122;SDS011;42426;46.104;19.656;2023-05-10T03:32:57;9.73;;;7.35;;
56122;SDS011;42426;46.104;19.656;2023-05-10T03:35:22;9.90;;;8.13;;
56122;SDS011;42426;46.104;19.656;2023-05-10T03:37:49;13.50;;;7.75;;
56122;SDS011;42426;46.104;19.656;2023-05-10T03:40:14;12.52;;;7.82;;
56122;SDS011;42426;46.104;19.656;2023-05-10T03:42:41;9.32;;;7.05;;
56122;SDS011;42426;46.104;19.656;2023-05-10T03:45:07;12.10;;;7.97;;
56122;SDS011;42426;46.104;19.656;2023-05-10T03:47:34;10.30;;;8.30;;
56122;SDS011;42426;46.104;19.656;2023-05-10T03:50:00;10.00;;;7.38;;
56122;SDS011;42426;46.104;19.656;2023-05-10T03:52:26;10.40;;;8.13;;
56122;SDS011;42426;46.104;19.656;2023-05-10T03:54:52;12.63;;;8.48;;
56122;SDS011;42426;46.104;19.656;2023-05-10T03:57:18;8.32;;;7.22;;
56122;SDS011;42426;46.104;19.656;2023-05-10T03:59:44;9.23;;;8.32;;
56122;SDS011;42426;46.104;19.656;2023-05-10T04:02:10;9.27;;;7.95;;
56122;SDS011;42426;46.104;19.656;2023-05-10T04:04:36;12.15;;;8.00;;
56122;SDS011;42426;46.104;19.656;2023-05-10T04:07:01;10.77;;;8.18;;
56122;SDS011;42426;46.104;19.656;2023-05-10T04:09:28;10.15;;;8.23;;
56122;SDS011;42426;46.104;19.656;2023-05-10T04:11:53;9.55;;;7.32;;
56122;SDS011;42426;46.104;19.656;2023-05-10T04:14:19;9.25;;;7.57;;
56122;SDS011;42426;46.104;19.656;2023-05-10T04:16:45;9.77;;;7.78;;
56122;SDS011;42426;46.104;19.656;2023-05-10T04:19:11;9.52;;;7.43;;
56122;SDS011;42426;46.104;19.656;2023-05-10T04:21:36;10.55;;;8.20;;
56122;SDS011;42426;46.104;19.656;2023-05-10T04:24:02;9.43;;;8.23;;
56122;SDS011;42426;46.104;19.656;2023-05-10T04:26:29;8.93;;;7.38;;
56122;SDS011;42426;46.104;19.656;2023-05-10T04:28:55;9.65;;;8.00;;
56122;SDS011;42426;46.104;19.656;2023-05-10T04:31:23;16.80;;;9.85;;
56122;SDS011;42426;46.104;19.656;2023-05-10T04:33:49;11.55;;;8.07;;
56122;SDS011;42426;46.104;19.656;2023-05-10T04:36:15;10.23;;;8.43;;
56122;SDS011;42426;46.104;19.656;2023-05-10T04:38:41;13.70;;;7.70;;
56122;SDS011;42426;46.104;19.656;2023-05-10T04:41:08;10.65;;;7.38;;
56122;SDS011;42426;46.104;19.656;2023-05-10T04:43:35;10.13;;;7.60;;
56122;SDS011;42426;46.104;19.656;2023-05-10T04:46:01;12.55;;;8.70;;
56122;SDS011;42426;46.104;19.656;2023-05-10T04:48:28;11.18;;;8.38;;
56122;SDS011;42426;46.104;19.656;2023-05-10T04:50:54;10.82;;;7.95;;
56122;SDS011;42426;46.104;19.656;2023-05-10T04:53:20;10.85;;;8.13;;
56122;SDS011;42426;46.104;19.656;2023-05-10T04:55:46;10.60;;;7.57;;
56122;SDS011;42426;46.104;19.656;2023-05-10T04:58:12;8.18;;;6.85;;
56122;SDS011;42426;46.104;19.656;2023-05-10T05:00:38;11.85;;;7.80;;
56122;SDS011;42426;46.104;19.656;2023-05-10T05:03:04;9.68;;;7.43;;
56122;SDS011;42426;46.104;19.656;2023-05-10T05:05:32;9.90;;;7.80;;
56122;SDS011;42426;46.104;19.656;2023-05-10T05:07:58;11.48;;;7.68;;
56122;SDS011;42426;46.104;19.656;2023-05-10T05:10:23;8.93;;;7.55;;
56122;SDS011;42426;46.104;19.656;2023-05-10T05:12:49;11.20;;;7.35;;
56122;SDS011;42426;46.104;19.656;2023-05-10T05:15:15;11.95;;;6.65;;
56122;SDS011;42426;46.104;19.656;2023-05-10T05:17:42;13.43;;;8.20;;
56122;SDS011;42426;46.104;19.656;2023-05-10T05:20:08;10.90;;;6.68;;
56122;SDS011;42426;46.104;19.656;2023-05-10T05:22:35;10.65;;;8.65;;
56122;SDS011;42426;46.104;19.656;2023-05-10T05:25:01;9.65;;;7.40;;
56122;SDS011;42426;46.104;19.656;2023-05-10T05:27:28;14.18;;;7.85;;
56122;SDS011;42426;46.104;19.656;2023-05-10T05:29:55;12.80;;;8.45;;
56122;SDS011;42426;46.104;19.656;2023-05-10T05:32:23;9.70;;;7.95;;
56122;SDS011;42426;46.104;19.656;2023-05-10T05:34:49;11.23;;;7.38;;
56122;SDS011;42426;46.104;19.656;2023-05-10T05:37:16;9.93;;;7.18;;
56122;SDS011;42426;46.104;19.656;2023-05-10T05:39:43;11.63;;;8.27;;
56122;SDS011;42426;46.104;19.656;2023-05-10T05:42:09;12.15;;;8.95;;
56122;SDS011;42426;46.104;19.656;2023-05-10T05:44:35;14.00;;;7.88;;
56122;SDS011;42426;46.104;19.656;2023-05-10T05:47:02;14.32;;;8.02;;
56122;SDS011;42426;46.104;19.656;2023-05-10T05:49:28;10.52;;;7.30;;
56122;SDS011;42426;46.104;19.656;2023-05-10T05:51:58;10.77;;;7.65;;
56122;SDS011;42426;46.104;19.656;2023-05-10T05:54:24;9.48;;;7.20;;
56122;SDS011;42426;46.104;19.656;2023-05-10T05:56:53;11.05;;;7.13;;
56122;SDS011;42426;46.104;19.656;2023-05-10T05:59:22;9.30;;;7.10;;
56122;SDS011;42426;46.104;19.656;2023-05-10T06:01:48;10.13;;;7.65;;
56122;SDS011;42426;46.104;19.656;2023-05-10T06:04:15;11.50;;;7.20;;
56122;SDS011;42426;46.104;19.656;2023-05-10T06:06:42;10.30;;;6.82;;
56122;SDS011;42426;46.104;19.656;2023-05-10T06:09:08;12.32;;;7.03;;
56122;SDS011;42426;46.104;19.656;2023-05-10T06:11:34;11.45;;;6.97;;
56122;SDS011;42426;46.104;19.656;2023-05-10T06:14:00;15.13;;;6.88;;
56122;SDS011;42426;46.104;19.656;2023-05-10T06:16:27;11.68;;;7.68;;
56122;SDS011;42426;46.104;19.656;2023-05-10T06:18:53;13.65;;;7.15;;
56122;SDS011;42426;46.104;19.656;2023-05-10T06:21:19;8.85;;;6.85;;
56122;SDS011;42426;46.104;19.656;2023-05-10T06:23:45;11.77;;;7.30;;
56122;SDS011;42426;46.104;19.656;2023-05-10T06:26:10;7.70;;;6.18;;
56122;SDS011;42426;46.104;19.656;2023-05-10T06:28:36;10.15;;;6.63;;
56122;SDS011;42426;46.104;19.656;2023-05-10T06:31:05;13.07;;;8.43;;
56122;SDS011;42426;46.104;19.656;2023-05-10T06:33:33;18.52;;;7.45;;
56122;SDS011;42426;46.104;19.656;2023-05-10T06:35:59;24.00;;;8.50;;
56122;SDS011;42426;46.104;19.656;2023-05-10T06:38:25;16.40;;;7.20;;
56122;SDS011;42426;46.104;19.656;2023-05-10T06:40:51;13.48;;;7.22;;
56122;SDS011;42426;46.104;19.656;2023-05-10T06:43:17;18.98;;;7.43;;
56122;SDS011;42426;46.104;19.656;2023-05-10T06:45:42;9.63;;;7.05;;
56122;SDS011;42426;46.104;19.656;2023-05-10T06:51:30;30.27;;;7.82;;
56122;SDS011;42426;46.104;19.656;2023-05-10T06:57:18;9.07;;;5.80;;
56122;SDS011;42426;46.104;19.656;2023-05-10T07:03:06;10.43;;;6.25;;
56122;SDS011;42426;46.104;19.656;2023-05-10T07:08:54;9.43;;;6.57;;
56122;SDS011;42426;46.104;19.656;2023-05-10T07:14:41;12.98;;;6.63;;
56122;SDS011;42426;46.104;19.656;2023-05-10T07:20:29;9.45;;;5.60;;
56122;SDS011;42426;46.104;19.656;2023-05-10T07:30:17;9.70;;;6.18;;
56122;SDS011;42426;46.104;19.656;2023-05-10T07:36:05;8.75;;;5.65;;
56122;SDS011;42426;46.104;19.656;2023-05-10T07:41:53;7.53;;;6.05;;
56122;SDS011;42426;46.104;19.656;2023-05-10T07:47:44;13.00;;;5.95;;
56122;SDS011;42426;46.104;19.656;2023-05-10T07:53:13;9.40;;;5.40;;
56122;SDS011;42426;46.104;19.656;2023-05-10T07:58:42;12.68;;;5.45;;
56122;SDS011;42426;46.104;19.656;2023-05-10T08:04:30;8.20;;;6.20;;
56122;SDS011;42426;46.104;19.656;2023-05-10T08:06:55;7.90;;;5.65;;
56122;SDS011;42426;46.104;19.656;2023-05-10T08:09:22;9.45;;;5.53;;
56122;SDS011;42426;46.104;19.656;2023-05-10T08:11:49;7.85;;;5.85;;
56122;SDS011;42426;46.104;19.656;2023-05-10T08:17:13;8.00;;;5.97;;
56122;SDS011;42426;46.104;19.656;2023-05-10T08:22:32;11.23;;;6.57;;
56122;SDS011;42426;46.104;19.656;2023-05-10T08:24:58;8.98;;;6.30;;
56122;SDS011;42426;46.104;19.656;2023-05-10T08:27:24;16.23;;;6.45;;
56122;SDS011;42426;46.104;19.656;2023-05-10T08:29:51;8.02;;;6.25;;
56122;SDS011;42426;46.104;19.656;2023-05-10T08:32:17;13.48;;;6.57;;
56122;SDS011;42426;46.104;19.656;2023-05-10T08:34:43;8.85;;;5.95;;
56122;SDS011;42426;46.104;19.656;2023-05-10T08:37:09;8.05;;;5.75;;
56122;SDS011;42426;46.104;19.656;2023-05-10T08:39:39;18.75;;;6.75;;
56122;SDS011;42426;46.104;19.656;2023-05-10T08:42:05;14.73;;;6.95;;
56122;SDS011;42426;46.104;19.656;2023-05-10T08:44:36;10.50;;;5.63;;
56122;SDS011;42426;46.104;19.656;2023-05-10T08:47:04;9.43;;;6.20;;
56122;SDS011;42426;46.104;19.656;2023-05-10T08:49:32;10.88;;;5.45;;
56122;SDS011;42426;46.104;19.656;2023-05-10T08:51:59;8.30;;;5.35;;
56122;SDS011;42426;46.104;19.656;2023-05-10T08:54:28;9.57;;;5.30;;
56122;SDS011;42426;46.104;19.656;2023-05-10T08:56:55;13.23;;;6.22;;
56122;SDS011;42426;46.104;19.656;2023-05-10T08:59:22;15.75;;;6.50;;
56122;SDS011;42426;46.104;19.656;2023-05-10T09:01:48;12.43;;;5.38;;
56122;SDS011;42426;46.104;19.656;2023-05-10T09:04:15;6.43;;;5.10;;
56122;SDS011;42426;46.104;19.656;2023-05-10T09:06:41;13.13;;;6.13;;
56122;SDS011;42426;46.104;19.656;2023-05-10T09:09:07;8.77;;;5.97;;
56122;SDS011;42426;46.104;19.656;2023-05-10T09:11:33;6.00;;;5.03;;
56122;SDS011;42426;46.104;19.656;2023-05-10T09:14:00;8.88;;;5.20;;
56122;SDS011;42426;46.104;19.656;2023-05-10T09:16:27;13.45;;;5.70;;
56122;SDS011;42426;46.104;19.656;2023-05-10T09:18:53;8.63;;;5.72;;
56122;SDS011;42426;46.104;19.656;2023-05-10T09:21:20;12.02;;;6.30;;
56122;SDS011;42426;46.104;19.656;2023-05-10T09:23:46;11.68;;;5.75;;
56122;SDS011;42426;46.104;19.656;2023-05-10T09:26:12;9.23;;;5.72;;
56122;SDS011;42426;46.104;19.656;2023-05-10T09:31:17;11.02;;;6.18;;
56122;SDS011;42426;46.104;19.656;2023-05-10T09:33:46;12.38;;;5.57;;
56122;SDS011;42426;46.104;19.656;2023-05-10T09:36:13;8.98;;;5.40;;
56122;SDS011;42426;46.104;19.656;2023-05-10T09:38:48;7.13;;;6.32;;
56122;SDS011;42426;46.104;19.656;2023-05-10T09:41:20;8.48;;;5.47;;
56122;SDS011;42426;46.104;19.656;2023-05-10T09:43:47;8.25;;;5.80;;
56122;SDS011;42426;46.104;19.656;2023-05-10T09:46:13;9.68;;;5.80;;
56122;SDS011;42426;46.104;19.656;2023-05-10T09:48:41;7.15;;;5.18;;
56122;SDS011;42426;46.104;19.656;2023-05-10T09:51:27;7.72;;;5.28;;
56122;SDS011;42426;46.104;19.656;2023-05-10T09:54:08;10.25;;;5.70;;
56122;SDS011;42426;46.104;19.656;2023-05-10T09:56:35;6.65;;;5.60;;
56122;SDS011;42426;46.104;19.656;2023-05-10T09:59:04;9.88;;;5.85;;
56122;SDS011;42426;46.104;19.656;2023-05-10T10:01:30;8.48;;;5.65;;
56122;SDS011;42426;46.104;19.656;2023-05-10T10:03:57;6.72;;;5.57;;
56122;SDS011;42426;46.104;19.656;2023-05-10T10:06:24;12.95;;;5.93;;
56122;SDS011;42426;46.104;19.656;2023-05-10T10:08:51;11.52;;;6.38;;
56122;SDS011;42426;46.104;19.656;2023-05-10T10:11:18;9.77;;;5.15;;
56122;SDS011;42426;46.104;19.656;2023-05-10T10:13:45;9.02;;;5.90;;
56122;SDS011;42426;46.104;19.656;2023-05-10T10:16:11;10.73;;;5.93;;
56122;SDS011;42426;46.104;19.656;2023-05-10T10:18:37;10.02;;;5.82;;
56122;SDS011;42426;46.104;19.656;2023-05-10T10:21:06;8.82;;;6.10;;
56122;SDS011;42426;46.104;19.656;2023-05-10T10:23:37;7.00;;;5.40;;
56122;SDS011;42426;46.104;19.656;2023-05-10T10:26:03;12.32;;;5.30;;
56122;SDS011;42426;46.104;19.656;2023-05-10T10:33:53;9.10;;;5.18;;
56122;SDS011;42426;46.104;19.656;2023-05-10T10:36:21;9.40;;;5.72;;
56122;SDS011;42426;46.104;19.656;2023-05-10T10:41:27;12.38;;;5.45;;
56122;SDS011;42426;46.104;19.656;2023-05-10T10:49:31;6.35;;;5.65;;
56122;SDS011;42426;46.104;19.656;2023-05-10T10:54:47;7.40;;;5.40;;
56122;SDS011;42426;46.104;19.656;2023-05-10T10:57:17;14.48;;;5.72;;
56122;SDS011;42426;46.104;19.656;2023-05-10T10:59:44;7.70;;;4.97;;
56122;SDS011;42426;46.104;19.656;2023-05-10T11:04:56;8.23;;;5.80;;
56122;SDS011;42426;46.104;19.656;2023-05-10T11:07:22;9.00;;;5.75;;
56122;SDS011;42426;46.104;19.656;2023-05-10T11:09:49;10.18;;;5.53;;
56122;SDS011;42426;46.104;19.656;2023-05-10T11:12:16;7.82;;;5.20;;
56122;SDS011;42426;46.104;19.656;2023-05-10T11:14:42;7.68;;;4.50;;
56122;SDS011;42426;46.104;19.656;2023-05-10T11:17:27;6.78;;;5.60;;
56122;SDS011;42426;46.104;19.656;2023-05-10T11:20:07;10.65;;;5.55;;
56122;SDS011;42426;46.104;19.656;2023-05-10T11:22:51;6.45;;;4.85;;
56122;SDS011;42426;46.104;19.656;2023-05-10T11:25:19;10.63;;;5.68;;
56122;SDS011;42426;46.104;19.656;2023-05-10T11:27:47;7.55;;;5.13;;
56122;SDS011;42426;46.104;19.656;2023-05-10T11:30:14;11.95;;;4.88;;
56122;SDS011;42426;46.104;19.656;2023-05-10T11:32:40;7.35;;;4.32;;
56122;SDS011;42426;46.104;19.656;2023-05-10T11:35:10;6.90;;;4.88;;
56122;SDS011;42426;46.104;19.656;2023-05-10T11:37:38;7.53;;;4.55;;
56122;SDS011;42426;46.104;19.656;2023-05-10T11:40:09;10.45;;;6.18;;
56122;SDS011;42426;46.104;19.656;2023-05-10T11:42:36;6.28;;;4.28;;
56122;SDS011;42426;46.104;19.656;2023-05-10T11:45:03;7.93;;;3.92;;
56122;SDS011;42426;46.104;19.656;2023-05-10T11:47:30;7.90;;;4.10;;
56122;SDS011;42426;46.104;19.656;2023-05-10T11:49:56;13.82;;;5.25;;
56122;SDS011;42426;46.104;19.656;2023-05-10T11:52:24;10.45;;;4.72;;
56122;SDS011;42426;46.104;19.656;2023-05-10T11:58:00;7.35;;;4.03;;
56122;SDS011;42426;46.104;19.656;2023-05-10T12:00:26;8.52;;;4.93;;
56122;SDS011;42426;46.104;19.656;2023-05-10T12:02:52;6.25;;;4.30;;
56122;SDS011;42426;46.104;19.656;2023-05-10T12:05:18;8.70;;;4.32;;
56122;SDS011;42426;46.104;19.656;2023-05-10T12:07:45;4.55;;;3.92;;
56122;SDS011;42426;46.104;19.656;2023-05-10T12:10:12;6.05;;;3.75;;
56122;SDS011;42426;46.104;19.656;2023-05-10T12:12:46;8.85;;;3.75;;
56122;SDS011;42426;46.104;19.656;2023-05-10T12:17:49;5.25;;;4.00;;
56122;SDS011;42426;46.104;19.656;2023-05-10T12:20:21;5.18;;;4.50;;
56122;SDS011;42426;46.104;19.656;2023-05-10T12:22:51;6.43;;;3.92;;
56122;SDS011;42426;46.104;19.656;2023-05-10T12:25:20;4.95;;;4.45;;
56122;SDS011;42426;46.104;19.656;2023-05-10T12:27:54;4.47;;;3.83;;
56122;SDS011;42426;46.104;19.656;2023-05-10T12:30:24;5.80;;;4.28;;
56122;SDS011;42426;46.104;19.656;2023-05-10T12:32:51;16.58;;;4.75;;
56122;SDS011;42426;46.104;19.656;2023-05-10T12:35:18;5.13;;;3.97;;
56122;SDS011;42426;46.104;19.656;2023-05-10T12:37:49;7.28;;;4.32;;
56122;SDS011;42426;46.104;19.656;2023-05-10T12:40:15;6.50;;;4.35;;
56122;SDS011;42426;46.104;19.656;2023-05-10T12:42:41;10.75;;;4.95;;
56122;SDS011;42426;46.104;19.656;2023-05-10T12:45:09;6.72;;;4.00;;
56122;SDS011;42426;46.104;19.656;2023-05-10T12:47:35;4.95;;;3.63;;
56122;SDS011;42426;46.104;19.656;2023-05-10T12:50:02;6.00;;;4.00;;
56122;SDS011;42426;46.104;19.656;2023-05-10T12:52:28;4.50;;;3.80;;
56122;SDS011;42426;46.104;19.656;2023-05-10T12:54:56;7.20;;;4.10;;
56122;SDS011;42426;46.104;19.656;2023-05-10T12:57:21;6.28;;;4.15;;
56122;SDS011;42426;46.104;19.656;2023-05-10T12:59:48;10.82;;;4.65;;
56122;SDS011;42426;46.104;19.656;2023-05-10T13:02:14;4.90;;;3.88;;
56122;SDS011;42426;46.104;19.656;2023-05-10T13:04:42;7.47;;;3.90;;
56122;SDS011;42426;46.104;19.656;2023-05-10T13:07:09;11.77;;;4.35;;
56122;SDS011;42426;46.104;19.656;2023-05-10T13:09:35;7.38;;;3.95;;
56122;SDS011;42426;46.104;19.656;2023-05-10T13:12:01;5.53;;;3.70;;
56122;SDS011;42426;46.104;19.656;2023-05-10T13:14:28;9.40;;;3.63;;
56122;SDS011;42426;46.104;19.656;2023-05-10T13:16:55;7.20;;;3.97;;
56122;SDS011;42426;46.104;19.656;2023-05-10T13:19:21;7.70;;;3.97;;
56122;SDS011;42426;46.104;19.656;2023-05-10T13:21:47;6.30;;;3.75;;
56122;SDS011;42426;46.104;19.656;2023-05-10T13:24:12;6.35;;;3.95;;
56122;SDS011;42426;46.104;19.656;2023-05-10T13:26:39;4.75;;;4.22;;
56122;SDS011;42426;46.104;19.656;2023-05-10T13:29:07;5.60;;;3.40;;
56122;SDS011;42426;46.104;19.656;2023-05-10T13:31:33;5.07;;;3.70;;
56122;SDS011;42426;46.104;19.656;2023-05-10T13:33:59;6.10;;;3.67;;
56122;SDS011;42426;46.104;19.656;2023-05-10T13:36:25;5.85;;;3.85;;
56122;SDS011;42426;46.104;19.656;2023-05-10T13:38:51;10.10;;;3.70;;
56122;SDS011;42426;46.104;19.656;2023-05-10T13:41:17;7.47;;;3.90;;
56122;SDS011;42426;46.104;19.656;2023-05-10T13:43:43;6.47;;;4.10;;
56122;SDS011;42426;46.104;19.656;2023-05-10T13:46:09;6.88;;;3.67;;
56122;SDS011;42426;46.104;19.656;2023-05-10T13:48:35;24.60;;;5.40;;
56122;SDS011;42426;46.104;19.656;2023-05-10T13:51:02;9.40;;;4.43;;
56122;SDS011;42426;46.104;19.656;2023-05-10T13:53:28;5.07;;;3.60;;
56122;SDS011;42426;46.104;19.656;2023-05-10T13:55:55;7.45;;;3.70;;
56122;SDS011;42426;46.104;19.656;2023-05-10T13:58:20;6.60;;;3.83;;
56122;SDS011;42426;46.104;19.656;2023-05-10T14:00:46;5.47;;;3.58;;
56122;SDS011;42426;46.104;19.656;2023-05-10T14:03:12;10.55;;;3.60;;
56122;SDS011;42426;46.104;19.656;2023-05-10T14:05:38;7.82;;;4.00;;
56122;SDS011;42426;46.104;19.656;2023-05-10T14:08:04;7.20;;;3.53;;
56122;SDS011;42426;46.104;19.656;2023-05-10T14:10:30;5.55;;;4.07;;
56122;SDS011;42426;46.104;19.656;2023-05-10T14:12:56;7.78;;;3.88;;
56122;SDS011;42426;46.104;19.656;2023-05-10T14:15:22;5.03;;;3.22;;
56122;SDS011;42426;46.104;19.656;2023-05-10T14:17:48;8.90;;;3.47;;
56122;SDS011;42426;46.104;19.656;2023-05-10T14:20:14;7.10;;;4.03;;
56122;SDS011;42426;46.104;19.656;2023-05-10T14:22:40;13.85;;;3.72;;
56122;SDS011;42426;46.104;19.656;2023-05-10T14:25:06;7.72;;;3.63;;
56122;SDS011;42426;46.104;19.656;2023-05-10T14:27:31;5.72;;;3.33;;
56122;SDS011;42426;46.104;19.656;2023-05-10T14:29:57;5.72;;;3.42;;
56122;SDS011;42426;46.104;19.656;2023-05-10T14:32:23;8.05;;;3.65;;
56122;SDS011;42426;46.104;19.656;2023-05-10T14:34:49;6.50;;;3.88;;
56122;SDS011;42426;46.104;19.656;2023-05-10T14:37:15;7.60;;;3.40;;
56122;SDS011;42426;46.104;19.656;2023-05-10T14:39:41;7.45;;;3.78;;
56122;SDS011;42426;46.104;19.656;2023-05-10T14:42:07;5.32;;;3.70;;
56122;SDS011;42426;46.104;19.656;2023-05-10T14:44:34;6.43;;;3.47;;
56122;SDS011;42426;46.104;19.656;2023-05-10T14:46:59;8.00;;;3.90;;
56122;SDS011;42426;46.104;19.656;2023-05-10T14:49:25;6.57;;;3.70;;
56122;SDS011;42426;46.104;19.656;2023-05-10T14:51:52;5.00;;;3.70;;
56122;SDS011;42426;46.104;19.656;2023-05-10T14:54:18;6.57;;;3.70;;
56122;SDS011;42426;46.104;19.656;2023-05-10T14:56:44;7.32;;;3.75;;
56122;SDS011;42426;46.104;19.656;2023-05-10T14:59:10;8.70;;;4.82;;
56122;SDS011;42426;46.104;19.656;2023-05-10T15:01:35;9.50;;;4.70;;
56122;SDS011;42426;46.104;19.656;2023-05-10T15:04:03;6.97;;;4.72;;
56122;SDS011;42426;46.104;19.656;2023-05-10T15:06:33;5.15;;;3.80;;
56122;SDS011;42426;46.104;19.656;2023-05-10T15:09:02;7.45;;;4.35;;
56122;SDS011;42426;46.104;19.656;2023-05-10T15:11:28;5.38;;;3.65;;
56122;SDS011;42426;46.104;19.656;2023-05-10T15:13:54;9.43;;;4.20;;
56122;SDS011;42426;46.104;19.656;2023-05-10T15:16:20;5.93;;;4.07;;
56122;SDS011;42426;46.104;19.656;2023-05-10T15:18:46;8.88;;;4.00;;
56122;SDS011;42426;46.104;19.656;2023-05-10T15:21:12;7.32;;;3.55;;
56122;SDS011;42426;46.104;19.656;2023-05-10T15:23:37;8.55;;;3.65;;
56122;SDS011;42426;46.104;19.656;2023-05-10T15:26:03;4.22;;;3.40;;
56122;SDS011;42426;46.104;19.656;2023-05-10T15:28:44;7.50;;;3.85;;
56122;SDS011;42426;46.104;19.656;2023-05-10T15:31:10;6.13;;;3.70;;
56122;SDS011;42426;46.104;19.656;2023-05-10T15:33:36;6.00;;;4.13;;
56122;SDS011;42426;46.104;19.656;2023-05-10T15:36:03;11.25;;;3.83;;
56122;SDS011;42426;46.104;19.656;2023-05-10T15:38:29;7.93;;;4.15;;
56122;SDS011;42426;46.104;19.656;2023-05-10T15:40:56;5.15;;;3.83;;
56122;SDS011;42426;46.104;19.656;2023-05-10T15:43:23;12.68;;;4.63;;
56122;SDS011;42426;46.104;19.656;2023-05-10T15:45:48;8.30;;;4.15;;
56122;SDS011;42426;46.104;19.656;2023-05-10T15:48:15;6.13;;;3.78;;
56122;SDS011;42426;46.104;19.656;2023-05-10T15:50:41;6.25;;;3.55;;
56122;SDS011;42426;46.104;19.656;2023-05-10T15:53:07;5.95;;;4.20;;
56122;SDS011;42426;46.104;19.656;2023-05-10T15:55:32;10.45;;;4.38;;
56122;SDS011;42426;46.104;19.656;2023-05-10T15:58:00;5.18;;;4.05;;
56122;SDS011;42426;46.104;19.656;2023-05-10T16:00:26;8.55;;;3.67;;
56122;SDS011;42426;46.104;19.656;2023-05-10T16:02:52;5.85;;;3.65;;
56122;SDS011;42426;46.104;19.656;2023-05-10T16:05:18;7.03;;;3.38;;
56122;SDS011;42426;46.104;19.656;2023-05-10T16:07:44;7.05;;;3.65;;